Time;durP1;ratioP1;P1;durP2;ratioP2;P2;SDS_P1;SDS_P2;PMS_P1;PMS_P2;Temp;Humidity;BMP_temperature;BMP_pressure;BME280_temperature;BME280_humidity;BME280_pressure;Samples;Min_cycle;Max_cycle;Signal;HPM_P1;HPM_P2
2021/05/09 00:00:12;;;;;;;6.57;4.47;;;13.30;99.90;;;;;;4995917;28;20234;-90
2021/05/09 00:02:38;;;;;;;8.13;4.73;;;13.30;99.90;;;;;;4979613;28;20234;-89
2021/05/09 00:05:05;;;;;;;4.47;4.07;;;13.40;99.90;;;;;;4960980;28;20628;-89
2021/05/09 00:07:31;;;;;;;5.63;4.23;;;13.40;99.90;;;;;;4993796;28;21062;-89
2021/05/09 00:09:58;;;;;;;4.23;3.83;;;13.40;99.90;;;;;;4994396;28;20189;-89
2021/05/09 00:12:24;;;;;;;5.07;4.10;;;13.40;99.90;;;;;;4980541;28;20192;-89
2021/05/09 00:14:51;;;;;;;6.83;4.07;;;13.40;99.90;;;;;;4963713;28;20227;-90
2021/05/09 00:17:17;;;;;;;6.17;4.43;;;13.40;99.90;;;;;;4995624;28;20693;-88
2021/05/09 00:19:42;;;;;;;4.73;4.23;;;13.40;99.90;;;;;;5011965;28;20212;-91
2021/05/09 00:22:08;;;;;;;5.63;4.30;;;13.40;99.90;;;;;;4995231;28;21047;-90
2021/05/09 00:24:34;;;;;;;5.70;4.23;;;13.40;99.90;;;;;;4997487;28;20204;-89
2021/05/09 00:27:00;;;;;;;4.67;3.67;;;13.30;99.90;;;;;;4979816;28;20973;-89
2021/05/09 00:29:26;;;;;;;6.37;4.30;;;13.20;99.90;;;;;;4964011;28;20223;-90
2021/05/09 00:31:51;;;;;;;5.70;3.83;;;13.20;99.90;;;;;;4979010;28;20221;-90
2021/05/09 00:34:17;;;;;;;5.50;4.37;;;13.20;99.90;;;;;;4995777;28;20224;-91
2021/05/09 00:36:43;;;;;;;7.73;4.30;;;13.20;99.90;;;;;;4996116;28;20240;-89
2021/05/09 00:39:08;;;;;;;6.40;5.03;;;13.20;99.90;;;;;;4964039;28;21122;-90
2021/05/09 00:41:34;;;;;;;3.80;3.40;;;13.20;99.90;;;;;;4963690;28;20216;-90
2021/05/09 00:44:00;;;;;;;4.77;3.80;;;13.10;99.90;;;;;;4978852;28;20217;-89
2021/05/09 00:46:26;;;;;;;6.80;4.90;;;13.10;99.90;;;;;;4979191;28;20255;-90
2021/05/09 00:48:52;;;;;;;7.03;5.13;;;13.10;99.90;;;;;;4963101;28;20527;-87
2021/05/09 00:51:17;;;;;;;7.17;4.47;;;13.10;99.90;;;;;;4996321;28;20650;-89
2021/05/09 00:53:43;;;;;;;5.43;3.90;;;13.10;99.90;;;;;;4979194;28;20216;-89
2021/05/09 00:56:15;;;;;;;5.77;4.23;;;13.10;99.90;;;;;;4979197;28;20396;-89
2021/05/09 00:58:43;;;;;;;6.33;4.67;;;13.10;99.90;;;;;;4995130;28;20212;-89
2021/05/09 01:01:10;;;;;;;8.07;4.10;;;13.10;99.90;;;;;;4995536;28;20208;-87
2021/05/09 01:03:38;;;;;;;4.03;3.50;;;13.00;99.90;;;;;;5000543;28;20243;-89
2021/05/09 01:06:06;;;;;;;7.43;4.97;;;13.00;99.90;;;;;;4967828;28;20217;-89
2021/05/09 01:08:35;;;;;;;5.13;3.87;;;13.00;99.90;;;;;;4998082;28;20247;-89
2021/05/09 01:11:02;;;;;;;5.17;3.63;;;12.90;99.90;;;;;;4998799;28;20263;-88
2021/05/09 01:13:27;;;;;;;4.83;3.50;;;12.90;99.90;;;;;;4966970;28;20260;-88
2021/05/09 01:15:54;;;;;;;4.93;4.40;;;12.90;99.90;;;;;;4966596;28;20942;-88
2021/05/09 01:18:20;;;;;;;6.23;4.57;;;12.80;99.90;;;;;;5015960;28;20196;-88
2021/05/09 01:20:45;;;;;;;7.23;4.00;;;12.70;99.90;;;;;;4998467;28;20564;-89
2021/05/09 01:23:11;;;;;;;10.47;4.07;;;12.70;99.90;;;;;;4981709;28;20240;-88
2021/05/09 01:25:37;;;;;;;6.40;4.17;;;12.70;99.90;;;;;;5013837;28;20725;-88
2021/05/09 01:28:03;;;;;;;5.97;4.73;;;12.70;99.90;;;;;;4981488;28;20956;-88
2021/05/09 01:30:29;;;;;;;6.03;4.07;;;12.60;99.90;;;;;;4999234;28;20243;-87
2021/05/09 01:32:55;;;;;;;4.67;4.13;;;12.60;99.90;;;;;;4990305;28;20679;-89
2021/05/09 01:35:21;;;;;;;8.17;4.20;;;12.60;99.90;;;;;;4965489;28;21302;-89
2021/05/09 01:37:47;;;;;;;7.03;3.27;;;12.50;99.90;;;;;;4966549;28;20213;-89
2021/05/09 01:40:13;;;;;;;3.97;3.57;;;12.50;99.90;;;;;;4966508;28;20230;-86
2021/05/09 01:42:40;;;;;;;5.33;4.00;;;12.50;99.90;;;;;;4966358;28;20223;-88
2021/05/09 01:45:07;;;;;;;4.70;4.00;;;12.50;99.90;;;;;;4998217;28;20235;-88
2021/05/09 01:47:36;;;;;;;4.53;3.67;;;12.40;99.90;;;;;;4997720;28;20231;-88
2021/05/09 01:50:04;;;;;;;5.33;3.83;;;12.40;99.90;;;;;;4967216;28;20225;-88
2021/05/09 01:52:30;;;;;;;6.10;4.73;;;12.40;99.90;;;;;;4981611;28;20312;-89
2021/05/09 01:54:55;;;;;;;6.20;4.77;;;12.40;99.90;;;;;;4966502;28;20572;-89
2021/05/09 01:57:21;;;;;;;6.10;4.37;;;12.40;99.90;;;;;;4982284;28;20199;-88
2021/05/09 01:59:47;;;;;;;6.17;3.60;;;12.40;99.90;;;;;;4997454;28;20313;-89
2021/05/09 02:02:13;;;;;;;7.20;5.27;;;12.40;99.90;;;;;;4981360;28;20299;-88
2021/05/09 02:04:38;;;;;;;5.17;3.87;;;12.40;99.90;;;;;;4980850;28;20295;-88
2021/05/09 02:07:04;;;;;;;5.27;3.43;;;12.40;99.90;;;;;;4981460;28;20564;-88
2021/05/09 02:09:30;;;;;;;5.13;3.73;;;12.40;99.90;;;;;;4966024;28;20264;-87
2021/05/09 02:11:55;;;;;;;6.23;4.10;;;12.50;99.90;;;;;;4980783;28;21001;-90
2021/05/09 02:14:21;;;;;;;5.57;3.53;;;12.50;99.90;;;;;;5012597;28;20314;-88
2021/05/09 02:16:47;;;;;;;6.10;3.37;;;12.50;99.90;;;;;;4981868;28;20301;-89
2021/05/09 02:19:13;;;;;;;5.43;2.90;;;12.50;99.90;;;;;;4997989;28;20724;-89
2021/05/09 02:21:38;;;;;;;4.80;3.47;;;12.50;99.90;;;;;;4999567;28;20291;-89
2021/05/09 02:24:05;;;;;;;4.93;3.53;;;12.50;99.90;;;;;;4980815;28;20220;-89
2021/05/09 02:26:30;;;;;;;7.63;3.53;;;12.50;99.90;;;;;;4996836;28;20796;-88
2021/05/09 02:28:56;;;;;;;4.90;2.90;;;12.40;99.90;;;;;;5010713;28;20701;-88
2021/05/09 02:31:22;;;;;;;7.17;3.10;;;12.50;99.90;;;;;;4961091;28;20224;-89
2021/05/09 02:33:47;;;;;;;5.43;3.07;;;12.50;99.90;;;;;;4995650;28;20252;-87
2021/05/09 02:36:13;;;;;;;3.27;2.93;;;12.50;99.90;;;;;;4966089;28;20287;-89
2021/05/09 02:38:39;;;;;;;4.77;3.50;;;12.50;99.90;;;;;;4980915;28;20665;-89
2021/05/09 02:41:05;;;;;;;3.70;3.20;;;12.50;99.90;;;;;;4980330;28;20287;-88
2021/05/09 02:43:30;;;;;;;4.87;3.43;;;12.50;99.90;;;;;;4980638;28;20231;-90
2021/05/09 02:45:56;;;;;;;4.63;2.87;;;12.50;99.90;;;;;;4965231;28;20188;-88
2021/05/09 02:48:22;;;;;;;6.70;3.77;;;12.50;99.90;;;;;;4965514;28;20188;-91
2021/05/09 02:50:48;;;;;;;4.40;3.00;;;12.50;99.90;;;;;;4996984;28;20212;-89
2021/05/09 02:53:13;;;;;;;6.67;3.20;;;12.50;99.90;;;;;;4996532;28;20223;-89
2021/05/09 02:55:39;;;;;;;3.97;2.87;;;12.40;99.90;;;;;;4996447;28;20316;-87
2021/05/09 02:58:05;;;;;;;3.17;2.83;;;12.30;99.90;;;;;;4980878;28;20204;-89
2021/05/09 03:00:30;;;;;;;4.60;3.20;;;12.20;99.90;;;;;;4997625;28;21034;-89
2021/05/09 03:02:56;;;;;;;3.57;3.30;;;12.10;99.90;;;;;;4980698;28;20228;-89
2021/05/09 03:05:22;;;;;;;6.83;3.93;;;12.00;99.90;;;;;;4995974;28;20727;-88
2021/05/09 03:07:48;;;;;;;5.10;3.47;;;11.90;99.90;;;;;;4959014;28;21317;-88
2021/05/09 03:10:13;;;;;;;7.30;3.53;;;11.80;99.90;;;;;;4990693;28;20222;-89
2021/05/09 03:12:39;;;;;;;5.47;3.70;;;11.80;99.90;;;;;;4961599;28;20200;-88
2021/05/09 03:15:05;;;;;;;5.17;3.50;;;11.70;99.90;;;;;;4990502;28;20239;-87
2021/05/09 03:17:32;;;;;;;4.27;3.63;;;11.70;99.90;;;;;;4959821;28;20232;-88
2021/05/09 03:19:59;;;;;;;7.57;4.60;;;11.70;99.90;;;;;;4991828;28;20228;-88
2021/05/09 03:22:24;;;;;;;5.30;3.77;;;11.60;99.90;;;;;;4961430;28;20243;-89
2021/05/09 03:24:50;;;;;;;3.43;3.13;;;11.50;99.90;;;;;;5008537;28;20192;-89
2021/05/09 03:27:16;;;;;;;3.83;3.23;;;11.40;99.90;;;;;;4991620;28;20217;-90
2021/05/09 03:29:41;;;;;;;5.60;3.50;;;11.30;99.90;;;;;;4992641;28;20564;-87
2021/05/09 03:32:07;;;;;;;5.97;3.43;;;11.10;99.90;;;;;;4978033;28;20686;-87
2021/05/09 03:34:33;;;;;;;2.73;2.23;;;11.00;99.90;;;;;;4994957;28;20228;-88
2021/05/09 03:36:59;;;;;;;4.57;3.13;;;10.90;99.90;;;;;;4978088;28;20221;-87
2021/05/09 03:39:24;;;;;;;3.57;2.67;;;10.90;99.90;;;;;;4979786;28;20188;-87
2021/05/09 03:41:50;;;;;;;3.83;2.47;;;10.80;99.90;;;;;;4962505;28;20243;-87
2021/05/09 03:44:16;;;;;;;3.97;2.80;;;10.70;99.90;;;;;;4992115;28;21265;-88
2021/05/09 03:46:42;;;;;;;4.80;2.73;;;10.70;99.90;;;;;;4992367;28;21084;-88
2021/05/09 03:49:07;;;;;;;3.60;3.07;;;10.70;99.90;;;;;;4962213;28;20201;-88
2021/05/09 03:51:34;;;;;;;4.87;2.90;;;10.70;99.90;;;;;;4964423;28;20662;-88
2021/05/09 03:53:59;;;;;;;5.57;3.47;;;10.60;99.90;;;;;;4992841;28;20219;-88
2021/05/09 03:56:25;;;;;;;3.70;2.80;;;10.60;99.90;;;;;;4962519;28;21240;-87
2021/05/09 03:58:51;;;;;;;5.17;3.20;;;10.60;99.90;;;;;;4995533;28;20301;-88
2021/05/09 04:01:16;;;;;;;3.90;3.43;;;10.60;99.90;;;;;;4995348;28;20302;-88
2021/05/09 04:03:42;;;;;;;2.97;2.70;;;10.50;99.90;;;;;;4965472;28;20197;-87
2021/05/09 04:06:08;;;;;;;4.57;3.40;;;10.60;99.90;;;;;;4995738;28;20264;-87
2021/05/09 04:08:34;;;;;;;3.47;3.17;;;10.60;99.90;;;;;;4964295;28;20232;-87
2021/05/09 04:11:01;;;;;;;5.70;3.07;;;10.70;99.90;;;;;;4979097;28;21041;-88
2021/05/09 04:13:27;;;;;;;5.87;3.40;;;10.80;99.90;;;;;;4995365;28;20220;-89
2021/05/09 04:15:53;;;;;;;4.30;3.90;;;10.90;99.90;;;;;;4963884;28;20219;-88
2021/05/09 04:18:18;;;;;;;3.30;2.73;;;11.00;99.90;;;;;;4964808;28;20188;-88
2021/05/09 04:20:44;;;;;;;5.63;3.40;;;11.00;99.90;;;;;;4963117;28;20212;-88
2021/05/09 04:23:13;;;;;;;3.47;2.93;;;11.10;99.90;;;;;;4964184;28;20376;-88
2021/05/09 04:25:40;;;;;;;3.27;2.33;;;11.10;99.90;;;;;;4995063;28;20238;-88
2021/05/09 04:28:06;;;;;;;10.23;2.97;;;11.20;99.90;;;;;;4993860;28;20205;-88
2021/05/09 04:30:33;;;;;;;6.73;3.80;;;11.30;99.90;;;;;;4980735;28;21047;-87
2021/05/09 04:33:04;;;;;;;5.33;3.93;;;11.30;99.90;;;;;;4979115;28;20242;-88
2021/05/09 04:35:31;;;;;;;3.60;3.30;;;11.40;99.90;;;;;;4995223;28;20311;-87
2021/05/09 04:37:57;;;;;;;7.17;2.87;;;11.40;99.90;;;;;;4982613;28;20213;-87
2021/05/09 04:40:23;;;;;;;6.27;3.40;;;11.50;99.90;;;;;;4973826;28;20276;-88
2021/05/09 04:42:49;;;;;;;3.37;2.57;;;11.60;99.90;;;;;;4970977;28;20189;-89
2021/05/09 04:45:15;;;;;;;2.67;2.37;;;11.70;99.90;;;;;;4983430;28;20232;-89
2021/05/09 04:47:42;;;;;;;3.77;2.30;;;11.70;99.90;;;;;;4967937;28;20235;-90
2021/05/09 04:50:09;;;;;;;2.93;2.63;;;11.90;99.90;;;;;;4967741;28;20240;-88
2021/05/09 04:52:35;;;;;;;3.13;2.83;;;11.90;99.90;;;;;;4992974;28;20291;-89
2021/05/09 04:55:01;;;;;;;3.20;2.90;;;12.00;99.90;;;;;;4963579;28;20227;-89
2021/05/09 04:57:27;;;;;;;2.40;1.80;;;12.00;99.90;;;;;;4996826;28;20201;-88
2021/05/09 04:59:52;;;;;;;4.07;2.67;;;12.00;99.90;;;;;;4981601;28;20278;-87
2021/05/09 05:02:18;;;;;;;8.00;3.50;;;12.10;99.90;;;;;;5014796;28;20238;-89
2021/05/09 05:04:44;;;;;;;3.87;2.53;;;12.20;99.90;;;;;;4981755;28;20228;-89
2021/05/09 05:07:10;;;;;;;3.77;3.00;;;12.20;99.90;;;;;;4998677;28;21164;-89
2021/05/09 05:09:38;;;;;;;5.80;2.60;;;12.30;99.90;;;;;;4968224;28;20205;-89
2021/05/09 05:12:04;;;;;;;4.07;2.83;;;12.40;99.90;;;;;;4982438;28;20244;-90
2021/05/09 05:14:30;;;;;;;4.50;3.23;;;12.60;99.90;;;;;;4976638;28;20224;-89
2021/05/09 05:16:56;;;;;;;2.00;1.80;;;13.10;99.90;;;;;;4998024;28;20232;-88
2021/05/09 05:19:21;;;;;;;2.67;1.83;;;13.70;99.90;;;;;;4998585;28;20385;-88
2021/05/09 05:21:47;;;;;;;3.37;2.67;;;13.80;99.90;;;;;;4999256;28;20327;-89
2021/05/09 05:24:16;;;;;;;3.17;2.37;;;14.10;99.90;;;;;;4967830;28;20279;-90
2021/05/09 05:26:42;;;;;;;3.90;2.67;;;14.60;99.90;;;;;;4965641;28;20365;-89
2021/05/09 05:29:07;;;;;;;5.33;2.73;;;14.90;99.90;;;;;;4997784;28;20862;-88
2021/05/09 05:31:33;;;;;;;2.63;2.10;;;15.10;99.90;;;;;;5013870;28;20221;-88
2021/05/09 05:34:00;;;;;;;4.13;3.07;;;15.80;99.90;;;;;;4965700;28;20309;-88
2021/05/09 05:36:25;;;;;;;2.60;2.40;;;17.10;99.90;;;;;;4998814;28;20209;-89
2021/05/09 05:38:51;;;;;;;5.23;2.53;;;18.30;99.90;;;;;;4981532;28;20223;-89
2021/05/09 05:41:17;;;;;;;4.70;2.50;;;19.40;99.90;;;;;;4981837;28;20238;-89
2021/05/09 05:43:42;;;;;;;2.90;2.07;;;20.30;99.90;;;;;;4980933;28;20217;-89
2021/05/09 05:46:08;;;;;;;2.37;2.17;;;21.00;99.90;;;;;;4997778;28;20518;-89
2021/05/09 05:48:34;;;;;;;6.23;2.93;;;20.00;99.90;;;;;;4982074;28;20714;-89
2021/05/09 05:51:00;;;;;;;7.47;2.80;;;19.10;99.90;;;;;;4980442;28;20488;-90
2021/05/09 05:53:27;;;;;;;2.93;2.63;;;19.50;99.90;;;;;;4997448;28;20224;-90
2021/05/09 05:55:53;;;;;;;2.80;2.40;;;18.90;99.90;;;;;;4996800;28;20236;-91
2021/05/09 05:58:19;;;;;;;5.17;2.50;;;18.70;99.90;;;;;;4981065;28;20335;-90
2021/05/09 06:00:46;;;;;;;3.30;3.00;;;18.60;99.90;;;;;;4998316;28;20199;-90
2021/05/09 06:03:12;;;;;;;5.57;2.03;;;18.80;99.90;;;;;;4965238;28;20248;-91
2021/05/09 06:05:38;;;;;;;4.93;2.63;;;18.80;99.90;;;;;;4980829;28;20239;-91
2021/05/09 06:08:05;;;;;;;2.37;2.07;;;18.80;99.90;;;;;;4966051;28;20224;-90
2021/05/09 06:10:31;;;;;;;4.17;2.60;;;18.70;99.90;;;;;;4997239;28;20303;-89
2021/05/09 06:12:57;;;;;;;4.77;2.07;;;18.80;99.90;;;;;;4996617;28;20203;-91
2021/05/09 06:15:23;;;;;;;6.57;2.60;;;18.90;99.90;;;;;;5000152;28;20662;-90
2021/05/09 06:17:49;;;;;;;4.83;2.20;;;18.50;99.90;;;;;;4996554;28;20259;-92
2021/05/09 06:20:15;;;;;;;3.33;2.60;;;18.10;99.90;;;;;;4997334;28;20653;-92
2021/05/09 06:22:41;;;;;;;3.17;2.50;;;18.90;99.90;;;;;;4980864;28;20229;-92
2021/05/09 06:25:08;;;;;;;2.67;2.37;;;20.10;99.90;;;;;;4997493;28;20195;-91
2021/05/09 06:27:34;;;;;;;4.07;2.00;;;21.30;99.90;;;;;;4967149;28;20204;-92
2021/05/09 06:29:59;;;;;;;4.10;2.90;;;20.90;99.90;;;;;;4965916;28;20228;-92
2021/05/09 06:32:34;;;;;;;3.87;2.77;;;20.70;99.90;;;;;;4989117;28;20216;-93
2021/05/09 06:35:06;;;;;;;4.67;2.53;;;21.00;99.90;;;;;;4995174;28;20316;-94
2021/05/09 06:37:38;;;;;;;3.17;2.30;;;21.50;99.90;;;;;;4979042;28;20212;-93
2021/05/09 06:40:17;;;;;;;4.80;2.70;;;21.50;99.90;;;;;;5013672;28;20196;-93
2021/05/09 06:42:53;;;;;;;4.50;2.73;;;21.90;99.90;;;;;;4985831;28;20184;-92
2021/05/09 06:45:35;;;;;;;4.87;2.60;;;22.60;99.90;;;;;;4982914;28;20220;-93
2021/05/09 06:48:14;;;;;;;4.17;3.10;;;22.60;99.90;;;;;;4956544;28;20220;-93
2021/05/09 06:50:39;;;;;;;5.43;2.90;;;23.10;99.90;;;;;;4981020;28;20215;-90
2021/05/09 06:53:07;;;;;;;6.30;2.50;;;23.00;99.90;;;;;;4994336;28;20231;-92
2021/05/09 06:55:35;;;;;;;3.15;2.60;;;22.60;99.90;;;;;;4997882;28;21027;-91
2021/05/09 06:58:02;;;;;;;3.38;2.70;;;23.20;99.90;;;;;;4978939;28;20701;-89
2021/05/09 07:00:28;;;;;;;3.45;2.33;;;23.60;99.90;;;;;;4997531;28;20183;-92
2021/05/09 07:02:54;;;;;;;2.50;2.05;;;24.90;99.90;;;;;;4965337;28;20698;-91
2021/05/09 07:05:20;;;;;;;3.53;2.47;;;24.10;99.90;;;;;;4980531;28;20228;-89
2021/05/09 07:07:51;;;;;;;2.58;2.17;;;22.90;99.90;;;;;;4997606;28;20212;-90
2021/05/09 07:10:18;;;;;;;4.03;2.22;;;23.10;99.90;;;;;;4980826;28;20244;-88
2021/05/09 07:12:44;;;;;;;3.65;2.50;;;22.90;99.90;;;;;;4975402;28;20661;-90
2021/05/09 07:15:11;;;;;;;3.40;2.67;;;23.60;99.90;;;;;;5012943;28;20232;-90
2021/05/09 07:17:38;;;;;;;5.72;2.80;;;23.10;99.90;;;;;;4978546;28;20220;-90
2021/05/09 07:20:05;;;;;;;5.40;2.90;;;22.70;99.90;;;;;;4965000;28;20255;-89
2021/05/09 07:22:35;;;;;;;4.50;2.58;;;22.30;99.90;;;;;;4982679;28;20227;-89
2021/05/09 07:25:02;;;;;;;5.88;2.35;;;22.40;99.90;;;;;;5004837;28;20195;-87
2021/05/09 07:27:27;;;;;;;7.03;2.90;;;22.30;99.90;;;;;;5006514;28;20378;-89
2021/05/09 07:29:53;;;;;;;2.60;2.40;;;22.40;99.90;;;;;;4998557;28;20230;-90
2021/05/09 07:32:19;;;;;;;4.03;2.40;;;22.80;99.90;;;;;;5021928;28;20212;-90
2021/05/09 07:34:45;;;;;;;3.88;2.80;;;22.80;99.90;;;;;;4973770;28;20585;-89
2021/05/09 07:37:10;;;;;;;4.38;2.50;;;22.50;99.90;;;;;;5022425;28;20219;-89
2021/05/09 07:39:36;;;;;;;4.22;2.70;;;22.30;99.90;;;;;;5021971;28;20196;-89
2021/05/09 07:42:02;;;;;;;3.25;2.85;;;22.80;99.90;;;;;;5019377;28;20228;-89
2021/05/09 07:44:28;;;;;;;2.63;2.10;;;21.70;99.90;;;;;;4986321;28;20215;-89
2021/05/09 07:46:53;;;;;;;2.88;2.58;;;22.10;99.90;;;;;;4999966;28;20246;-92
2021/05/09 07:49:19;;;;;;;5.30;2.53;;;22.80;99.90;;;;;;4987673;28;20215;-88
2021/05/09 07:51:45;;;;;;;4.18;2.67;;;22.30;99.90;;;;;;5021261;28;20645;-90
2021/05/09 07:54:11;;;;;;;4.32;2.83;;;21.90;99.90;;;;;;5001473;28;20269;-88
2021/05/09 07:56:38;;;;;;;2.97;2.15;;;21.60;99.90;;;;;;5001148;28;20223;-90
2021/05/09 07:59:04;;;;;;;4.18;3.10;;;21.40;99.90;;;;;;5002420;28;20255;-89
2021/05/09 08:01:30;;;;;;;3.40;2.60;;;22.20;99.90;;;;;;4968647;28;20212;-90
2021/05/09 08:03:56;;;;;;;4.55;2.60;;;23.30;99.90;;;;;;4989078;28;20559;-89
2021/05/09 08:06:22;;;;;;;4.18;2.70;;;23.20;99.90;;;;;;4986088;28;20196;-88
2021/05/09 08:08:48;;;;;;;4.60;2.90;;;23.70;99.90;;;;;;4994829;28;20222;-89
2021/05/09 08:11:14;;;;;;;3.38;2.88;;;22.20;99.90;;;;;;5000557;28;20220;-89
2021/05/09 08:13:40;;;;;;;4.10;3.20;;;21.90;99.90;;;;;;4986903;28;20674;-90
2021/05/09 08:16:06;;;;;;;4.03;2.83;;;21.70;99.90;;;;;;5003276;28;20332;-90
2021/05/09 08:18:33;;;;;;;3.38;2.75;;;21.90;99.90;;;;;;4971622;28;21008;-89
2021/05/09 08:21:01;;;;;;;2.95;2.28;;;21.50;99.90;;;;;;5002058;28;21314;-90
2021/05/09 08:23:27;;;;;;;5.43;2.67;;;21.80;99.90;;;;;;4992081;28;20231;-93
2021/05/09 08:25:53;;;;;;;3.25;2.53;;;22.90;99.90;;;;;;4990428;28;20223;-90
2021/05/09 08:28:19;;;;;;;3.45;2.80;;;24.10;99.90;;;;;;5009875;28;20685;-90
2021/05/09 08:30:45;;;;;;;3.13;2.65;;;23.00;99.90;;;;;;5008812;28;20192;-91
2021/05/09 08:33:11;;;;;;;4.00;2.22;;;22.60;99.90;;;;;;4993181;28;20216;-89
2021/05/09 08:35:36;;;;;;;5.13;2.60;;;22.90;99.90;;;;;;4976933;28;20230;-92
2021/05/09 08:38:04;;;;;;;7.18;2.67;;;22.30;99.90;;;;;;5024862;28;20243;-90
2021/05/09 08:40:31;;;;;;;3.70;2.45;;;21.80;99.90;;;;;;4990099;28;20220;-88
2021/05/09 08:42:57;;;;;;;4.70;2.75;;;21.70;99.90;;;;;;4990235;28;20191;-89
2021/05/09 08:45:23;;;;;;;3.15;2.10;;;21.70;99.90;;;;;;5009076;28;20192;-90
2021/05/09 08:47:50;;;;;;;3.97;2.28;;;21.80;99.90;;;;;;5026926;28;20226;-88
2021/05/09 08:50:22;;;;;;;2.50;2.30;;;21.70;99.90;;;;;;4991605;28;20575;-91
2021/05/09 08:52:50;;;;;;;3.97;2.50;;;21.40;99.90;;;;;;5010726;28;20223;-91
2021/05/09 08:55:27;;;;;;;4.10;2.53;;;21.10;99.90;;;;;;5025334;28;20586;-93
2021/05/09 08:57:55;;;;;;;3.90;2.10;;;20.90;99.90;;;;;;4975331;28;20215;-91
2021/05/09 09:03:16;;;;;;;4.28;2.65;;;19.40;99.90;;;;;;4975671;28;20497;-93
2021/05/09 09:05:46;;;;;;;4.53;2.37;;;18.90;99.90;;;;;;4971964;28;20362;-93
2021/05/09 09:08:16;;;;;;;2.77;2.00;;;18.60;99.90;;;;;;4987023;28;20219;-89
2021/05/09 09:10:50;;;;;;;4.10;3.10;;;18.40;99.90;;;;;;5006341;28;20234;-91
2021/05/09 09:13:22;;;;;;;4.90;3.03;;;18.20;99.90;;;;;;4989213;28;20223;-90
2021/05/09 09:16:17;;;;;;;5.00;2.53;;;18.00;99.90;;;;;;5009779;28;20258;-89
2021/05/09 09:18:43;;;;;;;3.23;2.17;;;18.00;99.90;;;;;;4950589;28;21058;-90
2021/05/09 09:21:29;;;;;;;3.57;2.30;;;17.80;99.90;;;;;;4973787;28;20708;-91
2021/05/09 09:24:03;;;;;;;6.60;2.90;;;17.70;99.90;;;;;;4968202;28;20244;-93
2021/05/09 09:26:35;;;;;;;4.60;3.03;;;17.80;99.90;;;;;;4989784;28;20239;-90
2021/05/09 09:29:19;;;;;;;4.07;2.70;;;17.90;99.90;;;;;;5007551;28;20232;-89
2021/05/09 09:31:46;;;;;;;2.93;2.53;;;18.10;99.90;;;;;;4993337;28;20282;-92
2021/05/09 09:34:13;;;;;;;4.80;2.43;;;18.10;99.90;;;;;;4988782;28;20219;-89
2021/05/09 09:36:40;;;;;;;3.57;2.50;;;18.10;99.90;;;;;;5009100;28;20230;-88
2021/05/09 09:39:09;;;;;;;5.60;3.20;;;18.00;99.90;;;;;;4980090;28;20219;-91
2021/05/09 09:52:05;;;;;;;4.43;2.90;;;17.60;99.90;;;;;;5025559;28;20246;-95
2021/05/09 09:54:31;;;;;;;2.70;2.20;;;17.60;99.90;;;;;;5032515;28;20277;-91
2021/05/09 09:56:58;;;;;;;4.00;2.80;;;17.60;99.90;;;;;;5036900;28;20633;-90
2021/05/09 09:59:23;;;;;;;8.20;3.03;;;17.70;99.90;;;;;;5012056;28;20281;-90
2021/05/09 10:01:49;;;;;;;3.07;2.77;;;17.80;99.90;;;;;;5017254;28;20222;-90
2021/05/09 10:04:16;;;;;;;4.50;3.23;;;17.80;99.90;;;;;;5023682;28;20230;-92
2021/05/09 10:06:42;;;;;;;5.00;3.10;;;17.90;99.90;;;;;;5002604;28;20183;-94
2021/05/09 10:09:09;;;;;;;4.67;2.90;;;17.70;99.90;;;;;;5000914;28;20187;-94
2021/05/09 10:11:37;;;;;;;3.17;2.73;;;17.40;99.90;;;;;;5005641;28;20234;-92
2021/05/09 10:14:04;;;;;;;3.30;2.77;;;17.20;99.90;;;;;;5012260;28;20695;-92
2021/05/09 10:16:39;;;;;;;3.27;2.93;;;17.20;99.90;;;;;;4998040;28;20242;-93
2021/05/09 10:19:16;;;;;;;4.87;3.17;;;17.20;99.90;;;;;;4993249;28;20230;-92
2021/05/09 10:21:43;;;;;;;5.67;3.87;;;17.30;99.90;;;;;;5007596;28;20183;-92
2021/05/09 10:24:16;;;;;;;6.77;3.93;;;17.50;99.90;;;;;;5000389;28;20241;-94
2021/05/09 10:27:08;;;;;;;4.17;3.00;;;17.60;99.90;;;;;;5015332;28;20226;-94
2021/05/09 10:29:52;;;;;;;3.10;2.80;;;17.50;99.90;;;;;;5023517;28;20211;-92
2021/05/09 10:32:21;;;;;;;4.37;2.90;;;17.50;99.90;;;;;;5018819;28;20249;-94
2021/05/09 10:34:53;;;;;;;7.67;3.73;;;17.50;99.90;;;;;;5015565;28;20257;-93
2021/05/09 10:37:46;;;;;;;5.10;3.23;;;17.20;99.90;;;;;;5000434;28;20307;-91
2021/05/09 10:40:19;;;;;;;6.00;2.77;;;17.10;99.90;;;;;;5023185;28;20291;-92
2021/05/09 10:42:45;;;;;;;7.00;3.10;;;16.90;99.90;;;;;;5023224;28;20187;-92
2021/05/09 10:45:26;;;;;;;5.63;3.60;;;16.90;99.90;;;;;;4996805;28;20202;-95
2021/05/09 10:51:03;;;;;;;5.30;3.57;;;16.80;99.90;;;;;;5014987;28;20235;-96
2021/05/09 10:53:35;;;;;;;5.27;2.63;;;16.70;99.90;;;;;;4972602;28;20285;-92
2021/05/09 10:56:04;;;;;;;5.93;3.57;;;16.80;99.90;;;;;;4996447;28;20812;-93
2021/05/09 10:58:49;;;;;;;6.17;3.47;;;17.00;99.90;;;;;;5002983;28;20215;-95
2021/05/09 11:01:35;;;;;;;4.30;3.13;;;17.30;99.90;;;;;;5000252;28;20286;-92
2021/05/09 11:04:09;;;;;;;4.63;2.00;;;17.90;99.90;;;;;;4980942;28;20223;-94
2021/05/09 11:06:38;;;;;;;2.60;2.40;;;17.90;99.90;;;;;;4966901;28;20196;-95
2021/05/09 11:09:06;;;;;;;2.77;2.27;;;18.10;99.90;;;;;;5001071;28;20397;-95
2021/05/09 11:11:32;;;;;;;4.57;2.20;;;18.30;99.90;;;;;;4991287;28;20277;-90
2021/05/09 11:14:05;;;;;;;3.07;2.30;;;18.40;99.90;;;;;;4982521;28;20219;-91
2021/05/09 11:16:39;;;;;;;4.83;2.70;;;18.50;99.90;;;;;;4987196;28;20223;-93
2021/05/09 11:19:17;;;;;;;2.20;1.50;;;18.80;99.90;;;;;;4992607;28;20287;-95
2021/05/09 11:21:49;;;;;;;1.53;1.43;;;19.10;99.90;;;;;;4987142;28;20235;-95
2021/05/09 11:24:24;;;;;;;2.10;1.90;;;19.50;99.90;;;;;;5006986;23;20719;-92
2021/05/09 11:26:55;;;;;;;4.60;2.60;;;19.40;99.90;;;;;;4991164;28;20226;-95
2021/05/09 11:29:21;;;;;;;2.70;1.90;;;19.30;99.90;;;;;;4995414;28;20258;-96
2021/05/09 11:31:51;;;;;;;1.10;1.00;;;19.30;99.90;;;;;;4966835;28;21905;-92
2021/05/09 11:34:19;;;;;;;3.17;1.93;;;19.60;99.90;;;;;;5000103;28;20220;-91
2021/05/09 11:36:51;;;;;;;1.63;1.43;;;20.20;99.90;;;;;;4982989;28;20199;-91
2021/05/09 11:39:38;;;;;;;1.60;1.50;;;20.50;99.90;;;;;;5003151;28;20198;-89
2021/05/09 11:42:05;;;;;;;1.60;1.50;;;20.70;99.90;;;;;;4998390;28;20223;-94
2021/05/09 11:45:01;;;;;;;1.37;1.27;;;20.70;99.90;;;;;;5016248;28;20250;-92
2021/05/09 11:47:41;;;;;;;2.77;2.13;;;20.90;99.90;;;;;;4983633;28;20203;-89
2021/05/09 11:50:09;;;;;;;1.90;1.80;;;20.90;99.90;;;;;;4997287;28;20211;-92
2021/05/09 11:52:41;;;;;;;2.07;1.90;;;20.70;99.90;;;;;;4989099;28;20211;-94
2021/05/09 11:55:11;;;;;;;3.57;1.43;;;20.70;99.90;;;;;;4985645;28;20281;-93
2021/05/09 11:57:37;;;;;;;2.43;2.13;;;20.60;99.90;;;;;;4997035;28;20179;-91
2021/05/09 12:00:16;;;;;;;2.40;1.97;;;20.50;99.90;;;;;;4973350;28;20223;-91
2021/05/09 12:02:44;;;;;;;3.27;2.10;;;20.60;99.90;;;;;;4989746;28;20234;-92
2021/05/09 12:05:11;;;;;;;4.10;2.30;;;20.40;99.90;;;;;;4990253;28;20294;-94
2021/05/09 12:07:46;;;;;;;3.70;2.13;;;20.40;99.90;;;;;;4990384;28;20261;-92
2021/05/09 12:10:30;;;;;;;3.67;2.27;;;20.70;99.90;;;;;;4988522;28;20222;-95
2021/05/09 12:13:05;;;;;;;3.17;1.80;;;21.40;99.90;;;;;;4990162;28;20187;-92
2021/05/09 12:15:35;;;;;;;2.40;2.20;;;21.50;99.90;;;;;;5010686;28;20195;-90
2021/05/09 12:18:02;;;;;;;4.40;1.90;;;21.00;99.90;;;;;;4991828;28;20223;-92
2021/05/09 12:20:41;;;;;;;2.67;2.33;;;20.70;99.90;;;;;;5010520;28;20204;-93
2021/05/09 12:23:26;;;;;;;2.33;2.13;;;20.60;99.90;;;;;;4995606;28;20691;-90
2021/05/09 12:25:52;;;;;;;2.13;1.93;;;20.50;99.90;;;;;;5011933;28;20215;-90
2021/05/09 12:28:28;;;;;;;2.67;2.33;;;20.40;99.90;;;;;;4977877;28;20218;-92
2021/05/09 12:30:55;;;;;;;3.10;2.40;;;20.30;99.90;;;;;;4978315;28;20202;-91
2021/05/09 12:33:30;;;;;;;3.60;2.60;;;20.20;99.90;;;;;;4997396;28;20195;-92
2021/05/09 12:36:12;;;;;;;2.87;2.23;;;20.10;99.90;;;;;;4980804;28;20231;-91
2021/05/09 12:38:38;;;;;;;2.33;2.13;;;20.00;99.90;;;;;;5007856;28;20300;-92
2021/05/09 12:41:06;;;;;;;2.10;1.90;;;20.10;99.90;;;;;;4976118;28;20211;-93
2021/05/09 12:43:52;;;;;;;2.87;1.80;;;20.30;99.90;;;;;;5006906;28;20211;-90
2021/05/09 12:46:45;;;;;;;2.47;1.97;;;20.40;99.90;;;;;;4991687;28;20328;-93
2021/05/09 12:49:18;;;;;;;4.67;2.10;;;20.40;99.90;;;;;;4982965;28;20233;-93
2021/05/09 12:52:00;;;;;;;3.00;1.80;;;20.30;99.90;;;;;;4996351;28;20183;-90
2021/05/09 12:54:41;;;;;;;1.83;1.60;;;19.90;99.90;;;;;;5013366;28;20192;-90
2021/05/09 12:57:23;;;;;;;2.77;2.00;;;19.70;99.90;;;;;;5005310;28;20227;-93
2021/05/09 13:00:08;;;;;;;2.40;1.83;;;19.60;99.90;;;;;;4995455;28;20770;-90
2021/05/09 13:02:49;;;;;;;1.90;1.67;;;19.50;99.90;;;;;;4982256;28;20898;-89
2021/05/09 13:05:20;;;;;;;6.67;2.33;;;19.40;99.90;;;;;;4992569;28;20272;-91
2021/05/09 13:07:48;;;;;;;1.77;1.67;;;19.10;99.90;;;;;;4991334;28;20234;-92
2021/05/09 13:10:17;;;;;;;2.70;2.10;;;19.00;99.90;;;;;;4991003;28;20215;-94